createdAt,value
2023-03-08T00:01:23.138Z,99566.72
2023-03-08T00:03:55.977Z,99556.69
2023-03-08T00:06:25.482Z,99561.41
2023-03-08T00:08:57.496Z,99557.34
2023-03-08T00:11:25.529Z,99553.53
2023-03-08T00:13:53.158Z,99552.91
2023-03-08T00:16:20.641Z,99560.88
2023-03-08T00:18:48.196Z,99554.94
2023-03-08T00:21:18.556Z,99551.78
2023-03-08T00:23:46.538Z,99554.63
2023-03-08T00:26:14.378Z,99548.34
2023-03-08T00:28:42.075Z,99533.63
2023-03-08T00:31:13.817Z,99534.53
2023-03-08T00:33:41.336Z,99535.50
2023-03-08T00:36:17.516Z,99532.25
2023-03-08T00:38:46.023Z,99547.31
2023-03-08T00:41:16.666Z,99553.47
2023-03-08T00:43:44.218Z,99563.94
2023-03-08T00:46:12.985Z,99549.00
2023-03-08T00:48:41.290Z,99555.97
2023-03-08T00:51:12.165Z,99543.63
2023-03-08T00:53:39.620Z,99545.19
2023-03-08T00:56:07.245Z,99545.06
2023-03-08T00:58:37.974Z,99546.97
2023-03-08T01:01:06.022Z,99536.47
2023-03-08T01:03:33.863Z,99540.94
2023-03-08T01:06:10.926Z,99539.09
2023-03-08T01:08:40.284Z,99543.41
2023-03-08T01:11:14.492Z,99553.03
2023-03-08T01:13:41.902Z,99548.69
2023-03-08T01:16:18.861Z,99549.53
2023-03-08T01:18:46.780Z,99539.00
2023-03-08T01:21:14.224Z,99545.13
2023-03-08T01:23:42.660Z,99539.94
2023-03-08T01:26:20.351Z,99540.75
2023-03-08T01:28:48.584Z,99548.81
2023-03-08T01:31:25.308Z,99551.41
2023-03-08T01:33:55.325Z,99550.66
2023-03-08T01:36:25.280Z,99543.22
2023-03-08T01:38:53.312Z,99541.56
2023-03-08T01:41:27.298Z,99536.41
2023-03-08T01:43:55.345Z,99536.28
2023-03-08T01:46:30.693Z,99537.88
2023-03-08T01:49:23.176Z,99540.31
2023-03-08T01:52:04.938Z,99528.88
2023-03-08T01:54:48.098Z,99538.66
2023-03-08T01:57:22.120Z,99541.16
2023-03-08T01:59:53.764Z,99549.06
2023-03-08T02:02:28.359Z,99537.78
2023-03-08T02:04:56.709Z,99549.09
2023-03-08T02:07:24.417Z,99552.72
2023-03-08T02:09:52.003Z,99555.84
2023-03-08T02:12:20.074Z,99553.88
2023-03-08T02:14:48.050Z,99562.34
2023-03-08T02:17:15.765Z,99557.31
2023-03-08T02:20:02.082Z,99550.16
2023-03-08T02:22:29.558Z,99552.69
2023-03-08T02:24:56.975Z,99550.00
2023-03-08T02:27:27.260Z,99554.28
2023-03-08T02:29:54.746Z,99552.25
2023-03-08T02:32:23.496Z,99550.38
2023-03-08T02:34:51.037Z,99550.22
2023-03-08T02:37:18.537Z,99546.53
2023-03-08T02:39:49.530Z,99545.69
2023-03-08T02:42:17.012Z,99537.88
2023-03-08T02:44:44.720Z,99527.25
2023-03-08T02:47:12.180Z,99533.53
2023-03-08T02:49:39.557Z,99539.00
2023-03-08T02:52:07.935Z,99532.28
2023-03-08T02:54:35.366Z,99532.19
2023-03-08T02:57:02.809Z,99522.78
2023-03-08T02:59:32.300Z,99535.66
2023-03-08T03:01:59.909Z,99530.16
2023-03-08T03:04:33.629Z,99520.56
2023-03-08T03:07:01.458Z,99522.41
2023-03-08T03:09:30.532Z,99518.84
2023-03-08T03:11:59.466Z,99521.50
2023-03-08T03:14:28.454Z,99533.69
2023-03-08T03:16:56.886Z,99534.59
2023-03-08T03:19:24.301Z,99549.38
2023-03-08T03:21:51.804Z,99534.66
2023-03-08T03:24:19.997Z,99538.25
2023-03-08T03:26:54.522Z,99554.09
2023-03-08T03:29:24.568Z,99567.16
2023-03-08T03:31:58.532Z,99559.19
2023-03-08T03:34:26.189Z,99560.06
2023-03-08T03:36:53.801Z,99561.97
2023-03-08T03:39:21.785Z,99574.94
2023-03-08T03:41:49.648Z,99571.56
2023-03-08T03:44:17.438Z,99566.34
2023-03-08T03:46:47.422Z,99571.53
2023-03-08T03:49:18.622Z,99562.09
2023-03-08T03:51:48.366Z,99586.41
2023-03-08T03:54:22.190Z,99581.00
2023-03-08T03:56:49.894Z,99570.59
2023-03-08T03:59:20.641Z,99579.31
2023-03-08T04:01:48.505Z,99576.75
2023-03-08T04:04:24.532Z,99574.16
2023-03-08T04:06:53.828Z,99575.91
2023-03-08T04:09:25.315Z,99584.66
2023-03-08T04:12:05.890Z,99594.19
2023-03-08T04:14:34.677Z,99592.44
2023-03-08T04:17:03.226Z,99599.38
2023-03-08T04:19:38.539Z,99602.00
2023-03-08T04:22:07.358Z,99608.09
2023-03-08T04:24:42.739Z,99610.75
2023-03-08T04:27:15.717Z,99619.44
2023-03-08T04:29:43.182Z,99621.16
2023-03-08T04:32:10.849Z,99619.44
2023-03-08T04:34:44.144Z,99618.56
2023-03-08T04:37:14.675Z,99617.72
2023-03-08T04:39:47.435Z,99624.66
2023-03-08T04:42:17.041Z,99627.28
2023-03-08T04:44:45.784Z,99617.69
2023-03-08T04:47:15.344Z,99610.78
2023-03-08T04:49:45.868Z,99620.34
2023-03-08T04:52:13.936Z,99627.28
2023-03-08T04:54:43.049Z,99624.66
2023-03-08T04:57:30.748Z,99626.41
2023-03-08T05:00:00.441Z,99625.56
2023-03-08T05:02:28.133Z,99637.75
2023-03-08T05:04:55.783Z,99639.47
2023-03-08T05:07:23.269Z,99624.66
2023-03-08T05:09:52.488Z,99635.94
2023-03-08T05:12:20.037Z,99644.63
2023-03-08T05:14:53.449Z,99647.19
2023-03-08T05:17:21.797Z,99632.44
2023-03-08T05:19:50.486Z,99626.34
2023-03-08T05:22:22.602Z,99632.41
2023-03-08T05:24:52.751Z,99646.28
2023-03-08T05:27:21.137Z,99631.50
2023-03-08T05:29:48.652Z,99634.88
2023-03-08T05:32:16.130Z,99627.94
2023-03-08T05:34:43.687Z,99633.22
2023-03-08T05:37:16.116Z,99628.91
2023-03-08T05:39:45.142Z,99630.56
2023-03-08T05:42:19.871Z,99638.31
2023-03-08T05:44:47.421Z,99627.88
2023-03-08T05:47:19.061Z,99634.81
2023-03-08T05:49:46.576Z,99633.09
2023-03-08T05:52:14.680Z,99635.72
2023-03-08T05:54:42.409Z,99633.16
2023-03-08T05:57:15.163Z,99637.59
2023-03-08T05:59:43.252Z,99654.16
2023-03-08T06:02:16.678Z,99637.63
2023-03-08T06:04:48.128Z,99634.09
2023-03-08T06:07:18.737Z,99644.50
2023-03-08T06:09:51.892Z,99643.63
2023-03-08T06:12:19.532Z,99648.03
2023-03-08T06:15:13.225Z,99647.09
2023-03-08T06:17:42.166Z,99647.03
2023-03-08T06:20:12.010Z,99654.72
2023-03-08T06:22:45.529Z,99652.03
2023-03-08T06:25:13.711Z,99653.78
2023-03-08T06:27:41.459Z,99661.69
2023-03-08T06:30:17.793Z,99665.09
2023-03-08T06:32:45.450Z,99671.28
2023-03-08T06:35:13.424Z,99672.16
2023-03-08T06:37:47.631Z,99685.34
2023-03-08T06:40:16.567Z,99687.75
2023-03-08T06:42:43.985Z,99692.94
2023-03-08T06:45:14.704Z,99692.00
2023-03-08T06:47:44.914Z,99701.47
2023-03-08T06:50:13.484Z,99697.03
2023-03-08T06:52:43.916Z,99711.69
2023-03-08T06:55:12.364Z,99700.16
2023-03-08T06:57:40.014Z,99705.19
2023-03-08T07:00:09.720Z,99711.38
2023-03-08T07:02:37.472Z,99723.81
2023-03-08T07:05:05.316Z,99722.97
2023-03-08T07:07:33.104Z,99735.75
2023-03-08T07:10:00.643Z,99734.63
2023-03-08T07:12:28.023Z,99739.31
2023-03-08T07:14:55.420Z,99750.34
2023-03-08T07:17:22.839Z,99746.88
2023-03-08T07:19:50.358Z,99755.38
2023-03-08T07:22:17.822Z,99745.72
2023-03-08T07:24:49.643Z,99756.09
2023-03-08T07:27:17.413Z,99752.84
2023-03-08T07:29:44.873Z,99781.47
2023-03-08T07:32:12.522Z,99767.00
2023-03-08T07:34:40.096Z,99775.28
2023-03-08T07:37:16.116Z,99771.25
2023-03-08T07:40:01.820Z,99764.63
2023-03-08T07:42:29.255Z,99772.44
2023-03-08T07:45:02.224Z,99781.00
2023-03-08T07:47:29.709Z,99774.44
2023-03-08T07:49:57.225Z,99779.38
2023-03-08T07:52:31.389Z,99767.88
2023-03-08T07:54:58.885Z,99767.22
2023-03-08T07:57:26.250Z,99779.03
2023-03-08T07:59:54.834Z,99781.38
2023-03-08T08:02:22.349Z,99778.97
2023-03-08T08:04:50.869Z,99779.16
2023-03-08T08:07:18.424Z,99787.56
2023-03-08T08:09:45.891Z,99782.84
2023-03-08T08:12:13.476Z,99803.50
2023-03-08T08:14:40.940Z,99797.50
2023-03-08T08:17:08.658Z,99810.88
2023-03-08T08:19:37.493Z,99817.66
2023-03-08T08:22:05.278Z,99820.00
2023-03-08T08:24:32.994Z,99824.69
2023-03-08T08:27:00.432Z,99839.53
2023-03-08T08:29:28.275Z,99839.22
2023-03-08T08:31:57.038Z,99840.13
2023-03-08T08:34:24.838Z,99841.16
2023-03-08T08:36:52.412Z,99853.97
2023-03-08T08:39:19.942Z,99863.94
2023-03-08T08:41:49.438Z,99855.63
2023-03-08T08:44:18.234Z,99856.06
2023-03-08T08:46:45.762Z,99839.28
2023-03-08T08:49:13.306Z,99843.34
2023-03-08T08:51:40.846Z,99839.22
2023-03-08T08:54:08.427Z,99851.25
2023-03-08T08:56:42.608Z,99836.66
2023-03-08T08:59:12.695Z,99840.53
2023-03-08T09:01:43.991Z,99831.38
2023-03-08T09:04:13.856Z,99828.72
2023-03-08T09:06:41.487Z,99827.38
2023-03-08T09:09:09.057Z,99821.03
2023-03-08T09:11:48.473Z,99827.38
2023-03-08T09:14:21.056Z,99818.44
2023-03-08T09:16:48.686Z,99819.72
2023-03-08T09:19:16.293Z,99824.75
2023-03-08T09:21:43.859Z,99830.94
2023-03-08T09:24:11.952Z,99830.50
2023-03-08T09:26:39.497Z,99834.88
2023-03-08T09:29:07.797Z,99849.00
2023-03-08T09:31:37.405Z,99837.72
2023-03-08T09:34:09.227Z,99836.88
2023-03-08T09:36:39.808Z,99833.78
2023-03-08T09:39:13.149Z,99850.56
2023-03-08T09:41:53.268Z,99854.06
2023-03-08T09:44:45.454Z,99843.97
2023-03-08T09:47:33.198Z,99859.63
2023-03-08T09:50:12.396Z,99858.69
2023-03-08T09:52:52.266Z,99869.03
2023-03-08T09:55:30.528Z,99862.63
2023-03-08T09:58:14.339Z,99866.41
2023-03-08T10:00:41.906Z,99857.91
2023-03-08T10:03:31.835Z,99847.91
2023-03-08T10:06:19.684Z,99846.03
2023-03-08T10:08:57.249Z,99848.47
2023-03-08T10:11:34.125Z,99838.81
2023-03-08T10:14:17.455Z,99849.84
2023-03-08T10:16:50.786Z,99850.00
2023-03-08T10:19:27.656Z,99847.09
2023-03-08T10:21:57.446Z,99841.22
2023-03-08T10:24:34.431Z,99845.47
2023-03-08T10:27:16.161Z,99853.13
2023-03-08T10:29:51.157Z,99847.41
2023-03-08T10:32:18.893Z,99843.53
2023-03-08T10:34:46.924Z,99842.59
2023-03-08T10:37:15.181Z,99845.75
2023-03-08T10:39:54.919Z,99846.03
2023-03-08T10:42:28.201Z,99837.47
2023-03-08T10:45:15.583Z,99841.66
2023-03-08T10:47:58.002Z,99829.28
2023-03-08T10:50:31.885Z,99831.75
2023-03-08T10:53:09.609Z,99825.31
2023-03-08T10:55:46.037Z,99826.38
2023-03-08T10:58:37.696Z,99820.19
2023-03-08T11:01:24.546Z,99813.44
2023-03-08T11:04:04.263Z,99816.31
2023-03-08T11:06:35.226Z,99804.59
2023-03-08T11:09:04.794Z,99805.72
2023-03-08T11:11:42.748Z,99809.94
2023-03-08T11:14:12.045Z,99811.59
2023-03-08T11:16:45.412Z,99809.03
2023-03-08T11:19:36.300Z,99796.75
2023-03-08T11:22:22.043Z,99790.19
2023-03-08T11:24:56.372Z,99774.91
2023-03-08T11:27:32.388Z,99769.50
2023-03-08T11:30:12.685Z,99759.72
2023-03-08T11:33:25.966Z,99750.56
2023-03-08T11:36:34.642Z,99751.88
2023-03-08T11:39:34.727Z,99765.75
2023-03-08T11:42:23.209Z,99773.63
2023-03-08T11:45:06.881Z,99770.81
2023-03-08T11:47:38.460Z,99764.03
2023-03-08T11:50:26.176Z,99760.84
2023-03-08T11:53:13.285Z,99750.34
2023-03-08T11:55:59.309Z,99746.97
2023-03-08T11:58:55.797Z,99766.69
2023-03-08T12:01:27.187Z,99767.28
2023-03-08T12:04:03.191Z,99776.31
2023-03-08T12:06:38.415Z,99784.47
2023-03-08T12:09:12.502Z,99778.28
2023-03-08T12:12:06.769Z,99778.16
2023-03-08T12:14:47.089Z,99763.53
2023-03-08T12:17:25.885Z,99761.25
2023-03-08T12:19:54.067Z,99761.16
2023-03-08T12:22:31.255Z,99775.59
2023-03-08T12:25:16.734Z,99777.84
2023-03-08T12:27:50.605Z,99783.97
2023-03-08T12:30:18.166Z,99803.72
2023-03-08T12:32:47.538Z,99780.28
2023-03-08T12:35:21.057Z,99787.78
2023-03-08T12:38:26.889Z,99787.78
2023-03-08T12:40:55.501Z,99779.97
2023-03-08T12:43:22.909Z,99786.47
2023-03-08T12:45:59.253Z,99784.63
2023-03-08T12:48:31.085Z,99767.59
2023-03-08T12:51:14.203Z,99780.78
2023-03-08T12:53:50.432Z,99776.63
2023-03-08T12:56:43.862Z,99770.88
2023-03-08T12:59:11.242Z,99763.06
2023-03-08T13:01:44.400Z,99748.69
2023-03-08T13:04:38.603Z,99732.34
2023-03-08T13:07:09.822Z,99729.91
2023-03-08T13:09:43.198Z,99735.88
2023-03-08T13:12:16.415Z,99726.75
2023-03-08T13:14:46.877Z,99718.88
2023-03-08T13:17:36.949Z,99720.38
2023-03-08T13:20:11.859Z,99712.75
2023-03-08T13:22:57.946Z,99719.91
2023-03-08T13:25:39.464Z,99709.56
2023-03-08T13:28:11.716Z,99705.00
2023-03-08T13:30:49.706Z,99706.34
2023-03-08T13:33:26.672Z,99705.31
2023-03-08T13:36:02.492Z,99691.13
2023-03-08T13:38:38.054Z,99680.47
2023-03-08T13:41:05.572Z,99687.50
2023-03-08T13:43:35.231Z,99678.72
2023-03-08T13:46:10.342Z,99677.81
2023-03-08T13:48:38.302Z,99682.97
2023-03-08T13:51:06.403Z,99688.94
2023-03-08T13:53:36.868Z,99680.91
2023-03-08T13:56:06.290Z,99686.03
2023-03-08T13:58:40.306Z,99680.66
2023-03-08T14:01:17.417Z,99686.88
2023-03-08T14:03:46.778Z,99681.84
2023-03-08T14:06:26.144Z,99684.03
2023-03-08T14:08:59.506Z,99686.72
2023-03-08T14:11:32.006Z,99680.31
2023-03-08T14:14:02.635Z,99683.47
2023-03-08T14:16:44.402Z,99677.66
2023-03-08T14:19:14.838Z,99686.09
2023-03-08T14:21:52.627Z,99683.13
2023-03-08T14:24:25.476Z,99680.53
2023-03-08T14:27:04.243Z,99680.59
2023-03-08T14:29:37.016Z,99677.88
2023-03-08T14:32:10.478Z,99691.00
2023-03-08T14:34:42.825Z,99701.25
2023-03-08T14:37:29.910Z,99704.13
2023-03-08T14:40:20.347Z,99706.81
2023-03-08T14:42:51.912Z,99716.34
2023-03-08T14:45:36.731Z,99717.31
2023-03-08T14:49:20.893Z,99721.03
2023-03-08T14:51:54.619Z,99720.81
2023-03-08T14:54:34.081Z,99731.66
2023-03-08T14:57:18.021Z,99722.25
2023-03-08T14:59:50.043Z,99724.00
2023-03-08T15:02:18.446Z,99730.97
2023-03-08T15:04:51.604Z,99725.19
2023-03-08T15:07:36.537Z,99730.31
2023-03-08T15:10:12.132Z,99731.06
2023-03-08T15:17:35.290Z,99722.31
2023-03-08T15:28:38.184Z,99689.06
2023-03-08T17:10:03.322Z,99674.41
2023-03-08T17:13:36.170Z,99664.78
2023-03-08T17:16:19.671Z,99669.31
2023-03-08T17:19:23.749Z,99669.19
2023-03-08T17:22:37.962Z,99682.13
2023-03-08T17:29:35.304Z,99680.78
2023-03-08T20:20:42.797Z,99743.06
2023-03-08T20:23:20.674Z,99747.88
2023-03-08T20:27:18.953Z,99743.84
2023-03-08T20:29:24.977Z,99748.03
2023-03-08T20:32:09.749Z,99751.06
2023-03-08T20:36:14.234Z,99765.66
2023-03-08T20:39:00.433Z,99763.13
2023-03-08T20:41:50.783Z,99768.81
2023-03-08T22:09:55.677Z,99703.25
2023-03-08T22:12:54.416Z,99705.31
2023-03-08T22:15:46.711Z,99690.50
2023-03-08T22:20:28.802Z,99704.91
2023-03-08T22:22:19.305Z,99698.22
2023-03-08T22:25:07.489Z,99706.16
2023-03-08T22:27:39.351Z,99702.66
2023-03-08T22:30:12.165Z,99688.13
2023-03-08T22:32:50.771Z,99702.28
2023-03-08T22:35:18.566Z,99688.59
2023-03-08T22:37:46.658Z,99688.56
2023-03-08T22:40:14.808Z,99689.47
2023-03-08T22:42:42.591Z,99686.19
2023-03-08T22:45:10.478Z,99690.38
2023-03-08T22:47:38.178Z,99693.09
2023-03-08T22:50:08.956Z,99685.53
2023-03-08T22:52:39.505Z,99682.28
2023-03-08T22:55:07.533Z,99676.19
2023-03-08T22:57:40.583Z,99687.66
2023-03-08T23:00:14.460Z,99684.84
2023-03-08T23:02:44.384Z,99679.66
2023-03-08T23:05:14.253Z,99678.53
2023-03-08T23:07:41.842Z,99680.09
2023-03-08T23:10:11.455Z,99674.06
2023-03-08T23:12:41.137Z,99665.28
2023-03-08T23:15:09.494Z,99658.50
2023-03-08T23:17:37.171Z,99657.25
2023-03-08T23:20:05.853Z,99670.00
2023-03-08T23:22:33.510Z,99667.34
2023-03-08T23:25:01.236Z,99671.75
2023-03-08T23:27:28.917Z,99670.22
2023-03-08T23:29:57.615Z,99662.88
2023-03-08T23:32:25.290Z,99668.28
2023-03-08T23:34:53.979Z,99660.59
2023-03-08T23:37:21.541Z,99652.78
2023-03-08T23:39:50.193Z,99668.84
2023-03-08T23:42:17.771Z,99666.28
2023-03-08T23:44:45.442Z,99672.44
2023-03-08T23:47:14.149Z,99661.84
2023-03-08T23:49:41.793Z,99668.16
2023-03-08T23:52:09.458Z,99662.69
2023-03-08T23:54:37.064Z,99672.88
2023-03-08T23:57:04.658Z,99663.84
2023-03-08T23:59:32.239Z,99665.53
